Terminal Aerodrome Forecast
Issued by NWS Springfield, MO

Home | Current Version | Previous Version | Text Only | Print | Product List | Glossary On
Versions: 1 2 3 4 5 6 7 8 9 10 11 12 13 14 15 16 17 18 19 20 21 22 23 24 25 26
000
FTUS43 KSGF 220737 AAC
TAFSGF
TAF AMD
KSGF 220737Z 2208/2306 21004KT 1SM BR VV006
      TEMPO 2208/2212 1/4SM FG BKN003
     FM221400 20005KT 1/2SM FG FEW003
     FM221500 20010KT P6SM FEW015=

USA.gov is the U.S. government's official web portal to all federal, state and local government web resources and services.